Time;durP1;ratioP1;P1;durP2;ratioP2;P2;SDS_P1;SDS_P2;PMS_P1;PMS_P2;Temp;Humidity;BMP_temperature;BMP_pressure;BME280_temperature;BME280_humidity;BME280_pressure;Samples;Min_cycle;Max_cycle;Signal;HPM_P1;HPM_P2
2023/01/24 00:01:43;;;;;;;;;;;;;;;;;;5053473;28;19941;-77
2023/01/24 00:04:09;;;;;;;;;;;;;;;;;;5056333;28;20419;-76
2023/01/24 00:06:35;;;;;;;;;;;;;;;;;;5057136;28;20321;-77
2023/01/24 00:09:01;;;;;;;;;;;;;;;;;;5057345;28;20368;-76
2023/01/24 00:11:27;;;;;;;;;;;;;;;;;;5057272;28;19920;-76
2023/01/24 00:13:53;;;;;;;;;;;;;;;;;;5057097;28;19909;-76
2023/01/24 00:16:19;;;;;;;;;;;;;;;;;;5056890;28;20395;-76
2023/01/24 00:18:45;;;;;;;;;;;;;;;;;;5056952;28;19918;-77
2023/01/24 00:21:14;;;;;;;;;;;;;;;;;;5056997;28;19915;-75
2023/01/24 00:23:40;;;;;;;;;;;;;;;;;;5056878;28;19909;-76
2023/01/24 00:26:06;;;;;;;;;;;;;;;;;;5056738;28;19916;-76
2023/01/24 00:28:32;;;;;;;;;;;;;;;;;;5056729;28;19909;-76
2023/01/24 00:30:57;;;;;;;;;;;;;;;;;;5056663;28;19919;-76
2023/01/24 00:33:23;;;;;;;;;;;;;;;;;;5056658;28;19943;-76
2023/01/24 00:35:50;;;;;;;;;;;;;;;;;;5056734;28;19909;-76
2023/01/24 00:38:16;;;;;;;;;;;;;;;;;;5055205;28;19916;-76
2023/01/24 00:40:42;;;;;;;;;;;;;;;;;;5056464;28;20265;-76
2023/01/24 00:43:08;;;;;;;;;;;;;;;;;;5056657;28;19909;-76
2023/01/24 00:45:33;;;;;;;;;;;;;;;;;;5055106;28;20289;-76
2023/01/24 00:47:59;;;;;;;;;;;;;;;;;;5056353;28;19991;-76
2023/01/24 00:50:25;;;;;;;;;;;;;;;;;;5056152;28;20013;-76
2023/01/24 00:52:51;;;;;;;;;;;;;;;;;;5055012;28;19909;-77
2023/01/24 00:55:17;;;;;;;;;;;;;;;;;;5056559;28;19913;-77
2023/01/24 00:57:43;;;;;;;;;;;;;;;;;;5056255;28;19916;-77
2023/01/24 01:00:09;;;;;;;;;;;;;;;;;;5056128;28;19909;-76
2023/01/24 01:02:35;;;;;;;;;;;;;;;;;;5056189;28;19909;-77
2023/01/24 01:05:01;;;;;;;;;;;;;;;;;;5055988;28;19974;-77
2023/01/24 01:07:27;;;;;;;;;;;;;;;;;;5056323;28;20395;-76
2023/01/24 01:09:53;;;;;;;;;;;;;;;;;;5056032;28;19966;-76
2023/01/24 01:12:19;;;;;;;;;;;;;;;;;;5056026;28;19947;-76
2023/01/24 01:14:45;;;;;;;;;;;;;;;;;;5054869;28;19909;-76
2023/01/24 01:17:10;;;;;;;;;;;;;;;;;;5055720;28;20399;-76
2023/01/24 01:19:36;;;;;;;;;;;;;;;;;;5055935;28;19967;-77
2023/01/24 01:22:02;;;;;;;;;;;;;;;;;;5054369;28;20365;-76
2023/01/24 01:24:28;;;;;;;;;;;;;;;;;;5054419;28;19916;-76
2023/01/24 01:26:54;;;;;;;;;;;;;;;;;;5055773;28;19908;-76
2023/01/24 01:29:20;;;;;;;;;;;;;;;;;;5055590;28;19913;-76
2023/01/24 01:31:46;;;;;;;;;;;;;;;;;;5054269;28;19939;-76
2023/01/24 01:34:12;;;;;;;;;;;;;;;;;;5055453;28;19963;-77
2023/01/24 01:36:38;;;;;;;;;;;;;;;;;;5054232;28;19927;-76
2023/01/24 01:39:04;;;;;;;;;;;;;;;;;;5055258;28;19917;-77
2023/01/24 01:41:30;;;;;;;;;;;;;;;;;;5055361;28;20008;-75
2023/01/24 01:46:40;;;;;;;;;;;;;;;;;;5055046;28;19915;-76
2023/01/24 01:49:06;;;;;;;;;;;;;;;;;;5053899;28;19908;-76
2023/01/24 01:51:33;;;;;;;;;;;;;;;;;;5055310;28;20281;-77
2023/01/24 01:53:59;;;;;;;;;;;;;;;;;;5053871;28;19915;-77
2023/01/24 01:56:25;;;;;;;;;;;;;;;;;;5055108;28;19909;-76
2023/01/24 01:58:51;;;;;;;;;;;;;;;;;;5055005;28;19916;-77
2023/01/24 02:01:17;;;;;;;;;;;;;;;;;;5054666;28;19913;-76
2023/01/24 02:03:43;;;;;;;;;;;;;;;;;;5055009;28;19931;-76
2023/01/24 02:06:09;;;;;;;;;;;;;;;;;;5053610;28;20373;-77
2023/01/24 02:08:35;;;;;;;;;;;;;;;;;;5054873;28;19940;-77
2023/01/24 02:13:45;;;;;;;;;;;;;;;;;;5054486;28;19958;-77
2023/01/24 02:16:11;;;;;;;;;;;;;;;;;;5054636;28;19925;-76
2023/01/24 02:18:37;;;;;;;;;;;;;;;;;;5054602;28;20003;-76
2023/01/24 02:21:03;;;;;;;;;;;;;;;;;;5054690;28;19909;-77
2023/01/24 02:23:29;;;;;;;;;;;;;;;;;;5054527;28;19909;-76
2023/01/24 02:25:55;;;;;;;;;;;;;;;;;;5054132;28;19963;-76
2023/01/24 02:28:21;;;;;;;;;;;;;;;;;;5054656;28;19909;-77
2023/01/24 02:30:47;;;;;;;;;;;;;;;;;;5054547;28;19975;-77
2023/01/24 02:33:13;;;;;;;;;;;;;;;;;;5054449;28;20276;-76
2023/01/24 02:35:39;;;;;;;;;;;;;;;;;;5054718;28;19913;-76
2023/01/24 02:38:05;;;;;;;;;;;;;;;;;;5054535;28;19909;-77
2023/01/24 02:40:31;;;;;;;;;;;;;;;;;;5054331;28;19909;-76
2023/01/24 02:42:56;;;;;;;;;;;;;;;;;;5054282;28;19919;-77
2023/01/24 02:45:22;;;;;;;;;;;;;;;;;;5054223;28;19952;-76
2023/01/24 02:47:48;;;;;;;;;;;;;;;;;;5054337;28;19959;-77
2023/01/24 02:50:15;;;;;;;;;;;;;;;;;;5054147;28;19917;-77
2023/01/24 02:55:25;;;;;;;;;;;;;;;;;;5053722;28;19924;-76
2023/01/24 02:58:06;;;;;;;;;;;;;;;;;;5053885;28;19909;-77
2023/01/24 03:00:32;;;;;;;;;;;;;;;;;;5054003;28;19915;-75
2023/01/24 03:02:58;;;;;;;;;;;;;;;;;;5053877;28;19909;-76
2023/01/24 03:05:24;;;;;;;;;;;;;;;;;;5053926;28;20265;-76
2023/01/24 03:07:50;;;;;;;;;;;;;;;;;;5054441;28;20402;-77
2023/01/24 03:10:15;;;;;;;;;;;;;;;;;;5052526;28;19913;-76
2023/01/24 03:34:48;;;;;;;;;;;;;;;;;;5053439;28;20043;-76
2023/01/24 03:37:14;;;;;;;;;;;;;;;;;;5053656;28;19916;-76
2023/01/24 03:39:59;;;;;;;;;;;;;;;;;;5057550;28;19909;-77
2023/01/24 03:42:26;;;;;;;;;;;;;;;;;;5056335;28;19954;-77
2023/01/24 03:44:52;;;;;;;;;;;;;;;;;;5057707;28;20332;-77
2023/01/24 03:47:18;;;;;;;;;;;;;;;;;;5057485;28;19912;-76
2023/01/24 03:52:28;;;;;;;;;;;;;;;;;;5057084;28;19915;-76
2023/01/24 03:54:54;;;;;;;;;;;;;;;;;;5057363;28;19999;-77
2023/01/24 03:57:20;;;;;;;;;;;;;;;;;;5057194;28;19913;-77
2023/01/24 03:59:46;;;;;;;;;;;;;;;;;;5057577;28;20337;-76
2023/01/24 04:02:12;;;;;;;;;;;;;;;;;;5057093;28;20392;-76
2023/01/24 04:07:22;;;;;;;;;;;;;;;;;;5056977;28;20059;-77
2023/01/24 04:09:48;;;;;;;;;;;;;;;;;;5056861;28;20014;-77
2023/01/24 04:12:14;;;;;;;;;;;;;;;;;;5056967;28;19951;-76
2023/01/24 04:14:40;;;;;;;;;;;;;;;;;;5056876;28;19909;-77
2023/01/24 04:17:06;;;;;;;;;;;;;;;;;;5056633;28;19920;-76
2023/01/24 04:19:32;;;;;;;;;;;;;;;;;;5056820;28;19909;-77
2023/01/24 04:21:58;;;;;;;;;;;;;;;;;;5056710;28;19916;-76
2023/01/24 04:24:24;;;;;;;;;;;;;;;;;;5055429;28;19909;-77
2023/01/24 04:26:50;;;;;;;;;;;;;;;;;;5055357;28;19959;-76
2023/01/24 04:29:16;;;;;;;;;;;;;;;;;;5056910;28;19912;-76
2023/01/24 04:31:42;;;;;;;;;;;;;;;;;;5055258;28;19988;-76
2023/01/24 04:34:08;;;;;;;;;;;;;;;;;;5055192;28;19909;-77
2023/01/24 04:36:33;;;;;;;;;;;;;;;;;;5056527;28;19909;-77
2023/01/24 04:38:59;;;;;;;;;;;;;;;;;;5056302;28;19909;-76
2023/01/24 04:41:25;;;;;;;;;;;;;;;;;;5056584;28;20254;-76
2023/01/24 04:43:51;;;;;;;;;;;;;;;;;;5056652;28;20365;-76
2023/01/24 04:46:17;;;;;;;;;;;;;;;;;;5056259;28;20426;-76
2023/01/24 04:48:43;;;;;;;;;;;;;;;;;;5055128;28;19909;-76
2023/01/24 04:51:09;;;;;;;;;;;;;;;;;;5056132;28;20409;-77
2023/01/24 04:53:35;;;;;;;;;;;;;;;;;;5056511;28;20385;-76
2023/01/24 04:56:01;;;;;;;;;;;;;;;;;;5056383;28;19959;-76
2023/01/24 04:58:27;;;;;;;;;;;;;;;;;;5056266;28;20326;-77
2023/01/24 05:00:53;;;;;;;;;;;;;;;;;;5054748;28;19916;-76
2023/01/24 05:03:19;;;;;;;;;;;;;;;;;;5056201;28;19916;-76
2023/01/24 05:05:45;;;;;;;;;;;;;;;;;;5055895;28;19909;-76
2023/01/24 05:08:11;;;;;;;;;;;;;;;;;;5055898;28;20446;-76
2023/01/24 05:10:37;;;;;;;;;;;;;;;;;;5055848;28;19917;-77
2023/01/24 05:13:03;;;;;;;;;;;;;;;;;;5055760;28;20323;-76
2023/01/24 05:15:29;;;;;;;;;;;;;;;;;;5054293;28;19998;-76
2023/01/24 05:17:55;;;;;;;;;;;;;;;;;;5056027;28;20372;-77
2023/01/24 05:20:21;;;;;;;;;;;;;;;;;;5055793;28;19909;-77
2023/01/24 05:22:48;;;;;;;;;;;;;;;;;;5055545;28;19913;-76
2023/01/24 05:25:14;;;;;;;;;;;;;;;;;;5055997;28;19908;-77
2023/01/24 05:27:40;;;;;;;;;;;;;;;;;;5055619;28;19931;-76
2023/01/24 05:30:06;;;;;;;;;;;;;;;;;;5055402;28;20007;-76
2023/01/24 05:32:32;;;;;;;;;;;;;;;;;;5055497;28;19909;-76
2023/01/24 05:34:58;;;;;;;;;;;;;;;;;;5054102;28;19909;-76
2023/01/24 05:37:24;;;;;;;;;;;;;;;;;;5055503;28;19913;-76
2023/01/24 05:39:50;;;;;;;;;;;;;;;;;;5055435;28;20422;-76
2023/01/24 05:42:16;;;;;;;;;;;;;;;;;;5055292;28;19909;-77
2023/01/24 05:44:41;;;;;;;;;;;;;;;;;;5055204;28;19998;-76
2023/01/24 05:47:07;;;;;;;;;;;;;;;;;;5055547;28;19913;-76
2023/01/24 05:49:33;;;;;;;;;;;;;;;;;;5055028;28;19919;-77
2023/01/24 05:51:59;;;;;;;;;;;;;;;;;;5055175;28;19915;-76
2023/01/24 05:54:25;;;;;;;;;;;;;;;;;;5054971;28;19955;-76
2023/01/24 05:56:51;;;;;;;;;;;;;;;;;;5054922;28;19963;-77
2023/01/24 05:59:17;;;;;;;;;;;;;;;;;;5054930;28;19912;-77
2023/01/24 06:01:43;;;;;;;;;;;;;;;;;;5054208;28;19916;-76
2023/01/24 06:04:09;;;;;;;;;;;;;;;;;;5054850;28;19908;-76
2023/01/24 06:06:35;;;;;;;;;;;;;;;;;;5054882;28;19909;-77
2023/01/24 06:09:01;;;;;;;;;;;;;;;;;;5054680;28;19959;-76
2023/01/24 06:11:29;;;;;;;;;;;;;;;;;;5054867;28;19917;-76
2023/01/24 06:13:55;;;;;;;;;;;;;;;;;;5054558;28;19909;-76
2023/01/24 06:16:21;;;;;;;;;;;;;;;;;;5053102;28;19921;-77
2023/01/24 06:18:47;;;;;;;;;;;;;;;;;;5054506;28;20025;-77
2023/01/24 06:21:13;;;;;;;;;;;;;;;;;;5054476;28;20319;-76
2023/01/24 06:23:39;;;;;;;;;;;;;;;;;;5053194;28;20324;-76
2023/01/24 06:26:04;;;;;;;;;;;;;;;;;;5054405;28;20289;-77
2023/01/24 06:28:30;;;;;;;;;;;;;;;;;;5054383;28;20345;-76
2023/01/24 06:30:56;;;;;;;;;;;;;;;;;;5054244;28;19920;-76
2023/01/24 06:33:22;;;;;;;;;;;;;;;;;;5054622;28;20284;-76
2023/01/24 06:35:48;;;;;;;;;;;;;;;;;;5052992;28;20378;-77
2023/01/24 06:38:14;;;;;;;;;;;;;;;;;;5054117;28;19909;-77
2023/01/24 06:40:40;;;;;;;;;;;;;;;;;;5054156;28;19909;-76
2023/01/24 06:43:06;;;;;;;;;;;;;;;;;;5054577;28;19915;-77
2023/01/24 06:45:32;;;;;;;;;;;;;;;;;;5053919;28;19909;-77
2023/01/24 06:48:00;;;;;;;;;;;;;;;;;;5053182;28;20134;-76
2023/01/24 06:50:29;;;;;;;;;;;;;;;;;;5053853;28;19913;-76
2023/01/24 06:52:55;;;;;;;;;;;;;;;;;;5053703;28;19909;-76
2023/01/24 06:55:20;;;;;;;;;;;;;;;;;;5053778;28;19916;-76
2023/01/24 06:57:47;;;;;;;;;;;;;;;;;;5053716;28;19908;-77
2023/01/24 07:00:13;;;;;;;;;;;;;;;;;;5053757;28;19909;-76
2023/01/24 07:02:39;;;;;;;;;;;;;;;;;;5053913;28;20377;-76
2023/01/24 07:05:05;;;;;;;;;;;;;;;;;;5052494;28;20111;-77
2023/01/24 07:07:31;;;;;;;;;;;;;;;;;;5054119;28;19956;-76
2023/01/24 07:09:57;;;;;;;;;;;;;;;;;;5053689;28;19923;-77
2023/01/24 07:12:23;;;;;;;;;;;;;;;;;;5053743;28;20382;-77
2023/01/24 07:14:49;;;;;;;;;;;;;;;;;;5053670;28;19909;-76
2023/01/24 07:17:15;;;;;;;;;;;;;;;;;;5053521;28;20388;-76
2023/01/24 07:19:40;;;;;;;;;;;;;;;;;;5053594;28;19909;-76
2023/01/24 07:22:06;;;;;;;;;;;;;;;;;;5053925;28;19955;-76
2023/01/24 07:24:32;;;;;;;;;;;;;;;;;;5053529;28;20323;-77
2023/01/24 07:26:58;;;;;;;;;;;;;;;;;;5053923;28;20414;-76
2023/01/24 07:29:24;;;;;;;;;;;;;;;;;;5053467;28;19909;-76
2023/01/24 07:31:50;;;;;;;;;;;;;;;;;;5053765;28;19908;-75
2023/01/24 07:34:16;;;;;;;;;;;;;;;;;;5053622;28;19909;-76
2023/01/24 07:36:42;;;;;;;;;;;;;;;;;;5053459;28;19908;-77
2023/01/24 07:39:08;;;;;;;;;;;;;;;;;;5053360;28;19909;-76
2023/01/24 07:41:34;;;;;;;;;;;;;;;;;;5053800;28;19958;-76
2023/01/24 07:44:04;;;;;;;;;;;;;;;;;;5053478;28;19909;-75
2023/01/24 07:46:30;;;;;;;;;;;;;;;;;;5053372;28;19998;-76
2023/01/24 07:48:56;;;;;;;;;;;;;;;;;;5053466;28;20335;-76
2023/01/24 07:51:22;;;;;;;;;;;;;;;;;;5053232;28;20289;-77
2023/01/24 07:53:48;;;;;;;;;;;;;;;;;;5053447;28;20373;-77
2023/01/24 07:56:16;;;;;;;;;;;;;;;;;;5053489;28;19908;-77
2023/01/24 07:58:42;;;;;;;;;;;;;;;;;;5051934;28;19915;-76
2023/01/24 08:01:08;;;;;;;;;;;;;;;;;;5053171;28;19908;-77
2023/01/24 08:03:34;;;;;;;;;;;;;;;;;;5053349;28;19932;-77
2023/01/24 08:06:00;;;;;;;;;;;;;;;;;;5053198;28;20368;-77
2023/01/24 08:08:25;;;;;;;;;;;;;;;;;;5053290;28;19916;-76
2023/01/24 08:10:51;;;;;;;;;;;;;;;;;;5053030;28;19920;-76
2023/01/24 08:13:17;;;;;;;;;;;;;;;;;;5052895;28;19934;-76
2023/01/24 08:15:43;;;;;;;;;;;;;;;;;;5051547;28;19920;-77
2023/01/24 08:18:11;;;;;;;;;;;;;;;;;;5053207;28;19909;-76
2023/01/24 08:20:37;;;;;;;;;;;;;;;;;;5053028;28;20272;-77
2023/01/24 08:23:03;;;;;;;;;;;;;;;;;;5051749;28;19915;-77
2023/01/24 08:25:30;;;;;;;;;;;;;;;;;;5056286;28;19909;-76
2023/01/24 08:27:55;;;;;;;;;;;;;;;;;;5057064;28;19940;-76
2023/01/24 08:30:21;;;;;;;;;;;;;;;;;;5056693;28;19960;-76
2023/01/24 08:32:47;;;;;;;;;;;;;;;;;;5056578;28;19978;-76
2023/01/24 08:35:13;;;;;;;;;;;;;;;;;;5056720;28;20270;-76
2023/01/24 08:37:39;;;;;;;;;;;;;;;;;;5056481;28;20266;-76
2023/01/24 08:40:06;;;;;;;;;;;;;;;;;;5056728;28;19909;-77
2023/01/24 08:42:32;;;;;;;;;;;;;;;;;;5056408;28;19908;-76
2023/01/24 08:44:57;;;;;;;;;;;;;;;;;;5056385;28;20007;-76
2023/01/24 08:47:23;;;;;;;;;;;;;;;;;;5054888;28;19916;-76
2023/01/24 08:49:49;;;;;;;;;;;;;;;;;;5056243;28;19913;-76
2023/01/24 08:52:15;;;;;;;;;;;;;;;;;;5054939;28;19932;-77
2023/01/24 08:54:46;;;;;;;;;;;;;;;;;;5056215;28;20376;-76
2023/01/24 08:57:12;;;;;;;;;;;;;;;;;;5056188;28;19909;-77
2023/01/24 08:59:38;;;;;;;;;;;;;;;;;;5056048;28;19913;-76
2023/01/24 09:02:04;;;;;;;;;;;;;;;;;;5054703;28;19954;-76
2023/01/24 09:04:29;;;;;;;;;;;;;;;;;;5056122;28;20001;-76
2023/01/24 09:06:55;;;;;;;;;;;;;;;;;;5055963;28;19913;-76
2023/01/24 09:09:21;;;;;;;;;;;;;;;;;;5056018;28;20434;-76
2023/01/24 09:11:47;;;;;;;;;;;;;;;;;;5055830;28;20395;-76
2023/01/24 09:14:13;;;;;;;;;;;;;;;;;;5055772;28;19908;-76
2023/01/24 09:16:39;;;;;;;;;;;;;;;;;;5055423;28;19921;-77
2023/01/24 09:19:05;;;;;;;;;;;;;;;;;;5055808;28;19959;-76
2023/01/24 09:21:31;;;;;;;;;;;;;;;;;;5055778;28;19909;-76
2023/01/24 09:23:57;;;;;;;;;;;;;;;;;;5054347;28;19920;-76
2023/01/24 09:26:23;;;;;;;;;;;;;;;;;;5055520;28;19909;-76
2023/01/24 09:28:49;;;;;;;;;;;;;;;;;;5055517;28;19909;-77
2023/01/24 09:31:15;;;;;;;;;;;;;;;;;;5054126;28;19999;-76
2023/01/24 09:33:41;;;;;;;;;;;;;;;;;;5055685;28;19916;-76
2023/01/24 09:36:07;;;;;;;;;;;;;;;;;;5054285;28;19913;-76
2023/01/24 09:38:33;;;;;;;;;;;;;;;;;;5053897;28;19916;-77
2023/01/24 09:40:59;;;;;;;;;;;;;;;;;;5055817;28;20003;-76
2023/01/24 09:43:25;;;;;;;;;;;;;;;;;;5055551;28;19991;-76
2023/01/24 09:45:51;;;;;;;;;;;;;;;;;;5053878;28;19951;-77
2023/01/24 09:48:17;;;;;;;;;;;;;;;;;;5055218;28;20320;-77
2023/01/24 09:50:43;;;;;;;;;;;;;;;;;;5055281;28;20407;-76
2023/01/24 09:53:09;;;;;;;;;;;;;;;;;;5055092;28;20015;-76
2023/01/24 09:55:35;;;;;;;;;;;;;;;;;;5055243;28;19916;-77
2023/01/24 09:58:01;;;;;;;;;;;;;;;;;;5054955;28;19909;-76
2023/01/24 10:00:27;;;;;;;;;;;;;;;;;;5054849;28;19967;-76
2023/01/24 10:02:53;;;;;;;;;;;;;;;;;;5054861;28;19909;-75
2023/01/24 10:05:19;;;;;;;;;;;;;;;;;;5055250;28;20420;-76
2023/01/24 10:07:45;;;;;;;;;;;;;;;;;;5054780;28;19985;-76
2023/01/24 10:10:10;;;;;;;;;;;;;;;;;;5054842;28;19912;-76
2023/01/24 10:12:36;;;;;;;;;;;;;;;;;;5054651;28;19908;-76
2023/01/24 10:15:02;;;;;;;;;;;;;;;;;;5054659;28;19916;-76
2023/01/24 10:17:28;;;;;;;;;;;;;;;;;;5054101;28;19928;-76
2023/01/24 10:19:54;;;;;;;;;;;;;;;;;;5053240;28;19995;-78
2023/01/24 10:22:20;;;;;;;;;;;;;;;;;;5053223;28;19967;-76
2023/01/24 10:24:46;;;;;;;;;;;;;;;;;;5054373;28;19909;-78
2023/01/24 10:27:12;;;;;;;;;;;;;;;;;;5054815;28;20423;-77
2023/01/24 10:29:38;;;;;;;;;;;;;;;;;;5054295;28;20410;-77
2023/01/24 10:32:04;;;;;;;;;;;;;;;;;;5053031;28;19909;-77
2023/01/24 10:34:30;;;;;;;;;;;;;;;;;;5054822;28;19963;-77
2023/01/24 10:36:57;;;;;;;;;;;;;;;;;;5052911;28;19909;-77
2023/01/24 10:39:23;;;;;;;;;;;;;;;;;;5054074;28;19935;-77
2023/01/24 10:41:49;;;;;;;;;;;;;;;;;;5054233;28;19911;-76
2023/01/24 10:44:15;;;;;;;;;;;;;;;;;;5052822;28;19973;-77
2023/01/24 10:46:41;;;;;;;;;;;;;;;;;;5053810;28;20384;-78
2023/01/24 10:49:07;;;;;;;;;;;;;;;;;;5054240;28;19912;-77
2023/01/24 10:51:33;;;;;;;;;;;;;;;;;;5053959;28;19919;-77
2023/01/24 10:53:59;;;;;;;;;;;;;;;;;;5053904;28;19916;-76
2023/01/24 10:56:25;;;;;;;;;;;;;;;;;;5052619;28;19909;-77
2023/01/24 10:58:51;;;;;;;;;;;;;;;;;;5052602;28;19909;-77
2023/01/24 11:01:18;;;;;;;;;;;;;;;;;;5054270;28;20279;-76
2023/01/24 11:03:43;;;;;;;;;;;;;;;;;;5052520;28;19924;-77
2023/01/24 11:06:09;;;;;;;;;;;;;;;;;;5053885;28;19909;-77
2023/01/24 11:08:35;;;;;;;;;;;;;;;;;;5053692;28;19909;-76
2023/01/24 11:11:01;;;;;;;;;;;;;;;;;;5053846;28;19913;-76
2023/01/24 11:13:27;;;;;;;;;;;;;;;;;;5052341;28;20266;-76
2023/01/24 11:15:53;;;;;;;;;;;;;;;;;;5053706;28;19916;-76
2023/01/24 11:18:19;;;;;;;;;;;;;;;;;;5053646;28;20442;-77
2023/01/24 11:20:46;;;;;;;;;;;;;;;;;;5054029;28;19908;-76
2023/01/24 11:23:12;;;;;;;;;;;;;;;;;;5053816;28;19909;-78
2023/01/24 11:25:38;;;;;;;;;;;;;;;;;;5053604;28;19978;-77
2023/01/24 11:28:04;;;;;;;;;;;;;;;;;;5053551;28;20265;-76
2023/01/24 11:30:34;;;;;;;;;;;;;;;;;;5053870;28;19917;-77
2023/01/24 11:33:00;;;;;;;;;;;;;;;;;;5053496;28;19948;-77
2023/01/24 11:35:25;;;;;;;;;;;;;;;;;;5053474;28;20288;-77
2023/01/24 11:37:51;;;;;;;;;;;;;;;;;;5053417;28;19909;-77
2023/01/24 11:40:17;;;;;;;;;;;;;;;;;;5053441;28;20269;-76
2023/01/24 11:42:43;;;;;;;;;;;;;;;;;;5053596;28;19962;-77
2023/01/24 11:45:09;;;;;;;;;;;;;;;;;;5053493;28;20001;-76
2023/01/24 11:47:35;;;;;;;;;;;;;;;;;;5053325;28;19998;-76
2023/01/24 11:50:01;;;;;;;;;;;;;;;;;;5053218;28;19913;-76
2023/01/24 11:52:27;;;;;;;;;;;;;;;;;;5052033;28;19912;-76
2023/01/24 11:54:53;;;;;;;;;;;;;;;;;;5053278;28;19941;-76
2023/01/24 11:57:19;;;;;;;;;;;;;;;;;;5053201;28;19909;-77
2023/01/24 11:59:45;;;;;;;;;;;;;;;;;;5055552;28;20387;-76
2023/01/24 12:02:11;;;;;;;;;;;;;;;;;;5057133;28;19991;-76
2023/01/24 12:04:37;;;;;;;;;;;;;;;;;;5057228;28;19959;-77
2023/01/24 12:07:03;;;;;;;;;;;;;;;;;;5057036;28;19909;-76
2023/01/24 12:09:29;;;;;;;;;;;;;;;;;;5056908;28;19908;-77
2023/01/24 12:11:54;;;;;;;;;;;;;;;;;;5056957;28;19909;-77
2023/01/24 12:14:21;;;;;;;;;;;;;;;;;;5056933;28;20296;-77
2023/01/24 12:16:47;;;;;;;;;;;;;;;;;;5056885;28;19929;-77
2023/01/24 12:19:12;;;;;;;;;;;;;;;;;;5056817;28;19913;-77
2023/01/24 12:21:38;;;;;;;;;;;;;;;;;;5056791;28;19920;-77
2023/01/24 12:24:05;;;;;;;;;;;;;;;;;;5057095;28;20293;-77
2023/01/24 12:26:31;;;;;;;;;;;;;;;;;;5056664;28;20356;-77
2023/01/24 12:28:57;;;;;;;;;;;;;;;;;;5056658;28;20003;-78
2023/01/24 12:31:23;;;;;;;;;;;;;;;;;;5056614;28;19975;-77
2023/01/24 12:33:48;;;;;;;;;;;;;;;;;;5056579;28;19916;-78
2023/01/24 12:36:14;;;;;;;;;;;;;;;;;;5056652;28;19909;-77
2023/01/24 12:38:40;;;;;;;;;;;;;;;;;;5056516;28;19916;-77
2023/01/24 12:41:06;;;;;;;;;;;;;;;;;;5056494;28;19909;-77
2023/01/24 12:43:32;;;;;;;;;;;;;;;;;;5056359;28;19909;-76
2023/01/24 12:45:58;;;;;;;;;;;;;;;;;;5056390;28;19927;-75
2023/01/24 12:48:24;;;;;;;;;;;;;;;;;;5056472;28;19909;-76
2023/01/24 12:50:50;;;;;;;;;;;;;;;;;;5054461;28;20000;-76
2023/01/24 12:53:16;;;;;;;;;;;;;;;;;;5056146;28;19916;-76
2023/01/24 12:55:42;;;;;;;;;;;;;;;;;;5056084;28;19947;-77
2023/01/24 12:58:08;;;;;;;;;;;;;;;;;;5054830;28;19936;-76
2023/01/24 13:00:34;;;;;;;;;;;;;;;;;;5054897;28;19916;-77
2023/01/24 13:03:00;;;;;;;;;;;;;;;;;;5055903;28;19913;-76
2023/01/24 13:05:25;;;;;;;;;;;;;;;;;;5056702;28;19999;-76
2023/01/24 13:07:51;;;;;;;;;;;;;;;;;;5055960;28;19944;-77
2023/01/24 13:10:17;;;;;;;;;;;;;;;;;;5055688;28;19963;-77
2023/01/24 13:12:43;;;;;;;;;;;;;;;;;;5055921;28;19913;-76
2023/01/24 13:15:09;;;;;;;;;;;;;;;;;;5054490;28;19999;-76
2023/01/24 13:17:35;;;;;;;;;;;;;;;;;;5055336;28;19986;-76
2023/01/24 13:20:01;;;;;;;;;;;;;;;;;;5055677;28;19909;-76
2023/01/24 13:22:27;;;;;;;;;;;;;;;;;;5055686;28;20384;-76
2023/01/24 13:24:53;;;;;;;;;;;;;;;;;;5055730;28;19956;-77
2023/01/24 13:27:19;;;;;;;;;;;;;;;;;;5055726;28;19909;-76
2023/01/24 13:29:45;;;;;;;;;;;;;;;;;;5055451;28;19966;-77
2023/01/24 13:32:11;;;;;;;;;;;;;;;;;;5055449;28;20262;-77
2023/01/24 13:34:37;;;;;;;;;;;;;;;;;;5055866;28;19924;-77
2023/01/24 13:37:03;;;;;;;;;;;;;;;;;;5055379;28;19909;-76
2023/01/24 13:39:29;;;;;;;;;;;;;;;;;;5055298;28;19919;-76
2023/01/24 13:41:55;;;;;;;;;;;;;;;;;;5055830;28;20294;-76
2023/01/24 13:44:21;;;;;;;;;;;;;;;;;;5055277;28;19908;-77
2023/01/24 13:46:47;;;;;;;;;;;;;;;;;;5055549;28;19916;-77
2023/01/24 13:49:12;;;;;;;;;;;;;;;;;;5055147;28;19944;-76
2023/01/24 13:51:38;;;;;;;;;;;;;;;;;;5055060;28;19962;-76
2023/01/24 13:54:05;;;;;;;;;;;;;;;;;;5053877;28;19935;-77
2023/01/24 13:56:31;;;;;;;;;;;;;;;;;;5055359;28;19971;-76
2023/01/24 13:58:57;;;;;;;;;;;;;;;;;;5055269;28;20369;-76
2023/01/24 14:01:23;;;;;;;;;;;;;;;;;;5054938;28;19909;-77
2023/01/24 14:03:49;;;;;;;;;;;;;;;;;;5054868;28;19909;-77
2023/01/24 14:06:15;;;;;;;;;;;;;;;;;;5053509;28;19912;-76
2023/01/24 14:08:41;;;;;;;;;;;;;;;;;;5054778;28;19916;-77
2023/01/24 14:11:09;;;;;;;;;;;;;;;;;;5054876;28;19917;-76
2023/01/24 14:13:35;;;;;;;;;;;;;;;;;;5054731;28;19908;-77
2023/01/24 14:16:01;;;;;;;;;;;;;;;;;;5053156;28;19927;-76
2023/01/24 14:18:27;;;;;;;;;;;;;;;;;;5054705;28;20288;-77
2023/01/24 14:20:53;;;;;;;;;;;;;;;;;;5054416;28;20278;-77
2023/01/24 14:23:19;;;;;;;;;;;;;;;;;;5052762;28;19916;-76
2023/01/24 14:25:45;;;;;;;;;;;;;;;;;;5054516;28;20003;-77
2023/01/24 14:28:11;;;;;;;;;;;;;;;;;;5054543;28;19915;-76
2023/01/24 14:30:37;;;;;;;;;;;;;;;;;;5054302;28;19913;-76
2023/01/24 14:33:03;;;;;;;;;;;;;;;;;;5054413;28;19912;-77
2023/01/24 14:35:29;;;;;;;;;;;;;;;;;;5053025;28;19963;-76
2023/01/24 14:37:55;;;;;;;;;;;;;;;;;;5054221;28;20328;-76
2023/01/24 14:40:21;;;;;;;;;;;;;;;;;;5054239;28;19923;-76
2023/01/24 14:42:47;;;;;;;;;;;;;;;;;;5054321;28;20026;-77
2023/01/24 14:45:13;;;;;;;;;;;;;;;;;;5054324;28;19916;-76
2023/01/24 14:47:39;;;;;;;;;;;;;;;;;;5054074;28;19920;-76
2023/01/24 14:50:05;;;;;;;;;;;;;;;;;;5053915;28;19913;-76
2023/01/24 14:52:32;;;;;;;;;;;;;;;;;;5052736;28;19915;-77
2023/01/24 14:54:58;;;;;;;;;;;;;;;;;;5053888;28;19913;-76
2023/01/24 14:57:24;;;;;;;;;;;;;;;;;;5053972;28;19945;-77
2023/01/24 14:59:50;;;;;;;;;;;;;;;;;;5053972;28;19909;-77
2023/01/24 15:02:16;;;;;;;;;;;;;;;;;;5053831;28;19935;-77
2023/01/24 15:04:42;;;;;;;;;;;;;;;;;;5052545;28;19909;-76
2023/01/24 15:07:08;;;;;;;;;;;;;;;;;;5053749;28;19912;-76
2023/01/24 15:09:34;;;;;;;;;;;;;;;;;;5053701;28;19941;-76
2023/01/24 15:12:00;;;;;;;;;;;;;;;;;;5053816;28;19909;-76
2023/01/24 15:14:25;;;;;;;;;;;;;;;;;;5053724;28;19959;-76
2023/01/24 15:16:52;;;;;;;;;;;;;;;;;;5053571;28;19927;-77
2023/01/24 15:19:18;;;;;;;;;;;;;;;;;;5052326;28;19938;-76
2023/01/24 15:21:44;;;;;;;;;;;;;;;;;;5053628;28;19909;-77
2023/01/24 15:24:09;;;;;;;;;;;;;;;;;;5053575;28;20003;-77
2023/01/24 15:26:36;;;;;;;;;;;;;;;;;;5052314;28;20325;-77
2023/01/24 15:29:02;;;;;;;;;;;;;;;;;;5052265;28;20316;-76
2023/01/24 15:31:28;;;;;;;;;;;;;;;;;;5053593;28;19917;-78
2023/01/24 15:33:54;;;;;;;;;;;;;;;;;;5054568;28;19913;-76
2023/01/24 15:36:20;;;;;;;;;;;;;;;;;;5057678;28;19916;-76
2023/01/24 15:38:46;;;;;;;;;;;;;;;;;;5057586;28;19913;-77
2023/01/24 15:41:12;;;;;;;;;;;;;;;;;;5057627;28;19943;-77
2023/01/24 15:43:47;;;;;;;;;;;;;;;;;;5057599;28;19916;-76
2023/01/24 15:48:58;;;;;;;;;;;;;;;;;;5057175;28;19967;-77
2023/01/24 15:51:24;;;;;;;;;;;;;;;;;;5057268;28;19912;-76
2023/01/24 15:53:50;;;;;;;;;;;;;;;;;;5057419;28;19966;-77
2023/01/24 15:56:16;;;;;;;;;;;;;;;;;;5057281;28;19909;-76
2023/01/24 15:58:41;;;;;;;;;;;;;;;;;;5057381;28;19916;-76
2023/01/24 16:01:07;;;;;;;;;;;;;;;;;;5057194;28;19913;-76
2023/01/24 16:03:33;;;;;;;;;;;;;;;;;;5055904;28;19931;-77
2023/01/24 16:05:59;;;;;;;;;;;;;;;;;;5057148;28;20385;-77
2023/01/24 16:08:26;;;;;;;;;;;;;;;;;;5057013;28;19916;-77
2023/01/24 16:10:55;;;;;;;;;;;;;;;;;;5057073;28;19912;-77
2023/01/24 16:13:22;;;;;;;;;;;;;;;;;;5055730;28;19952;-77
2023/01/24 16:15:48;;;;;;;;;;;;;;;;;;5056751;28;19970;-77
2023/01/24 16:18:14;;;;;;;;;;;;;;;;;;5055648;28;19964;-77
2023/01/24 16:20:39;;;;;;;;;;;;;;;;;;5056889;28;20426;-76
2023/01/24 16:23:05;;;;;;;;;;;;;;;;;;5055537;28;19915;-76
2023/01/24 16:25:31;;;;;;;;;;;;;;;;;;5056795;28;19955;-77
2023/01/24 16:27:57;;;;;;;;;;;;;;;;;;5056672;28;20407;-77
2023/01/24 16:30:23;;;;;;;;;;;;;;;;;;5056982;28;19920;-77
2023/01/24 16:32:49;;;;;;;;;;;;;;;;;;5056611;28;19909;-76
2023/01/24 16:35:15;;;;;;;;;;;;;;;;;;5056603;28;20373;-76
2023/01/24 16:37:41;;;;;;;;;;;;;;;;;;5056509;28;19909;-77
2023/01/24 16:40:07;;;;;;;;;;;;;;;;;;5056388;28;19913;-75
2023/01/24 16:42:33;;;;;;;;;;;;;;;;;;5056622;28;19909;-77
2023/01/24 16:44:59;;;;;;;;;;;;;;;;;;5055876;28;19932;-76
2023/01/24 16:47:25;;;;;;;;;;;;;;;;;;5056277;28;20365;-76
2023/01/24 16:49:51;;;;;;;;;;;;;;;;;;5056491;28;19920;-77
2023/01/24 16:52:16;;;;;;;;;;;;;;;;;;5056201;28;20286;-77
2023/01/24 16:54:42;;;;;;;;;;;;;;;;;;5056495;28;19909;-76
2023/01/24 16:57:08;;;;;;;;;;;;;;;;;;5056183;28;19909;-76
2023/01/24 16:59:34;;;;;;;;;;;;;;;;;;5056101;28;19908;-76
2023/01/24 17:02:00;;;;;;;;;;;;;;;;;;5056025;28;20000;-77
2023/01/24 17:04:26;;;;;;;;;;;;;;;;;;5056090;28;19988;-76
2023/01/24 17:06:53;;;;;;;;;;;;;;;;;;5056067;28;19909;-76
2023/01/24 17:09:19;;;;;;;;;;;;;;;;;;5055991;28;20284;-76
2023/01/24 17:11:45;;;;;;;;;;;;;;;;;;5054542;28;19912;-77
2023/01/24 17:14:11;;;;;;;;;;;;;;;;;;5055819;28;19909;-76
2023/01/24 17:16:37;;;;;;;;;;;;;;;;;;5055650;28;19921;-76